createdAt,value
2018-08-16T00:02:22.200Z,98375.44
2018-08-16T00:04:53.936Z,98374.61
2018-08-16T00:07:25.923Z,98369.41
2018-08-16T00:09:57.585Z,98371.12
2018-08-16T00:12:29.932Z,98369.45
2018-08-16T00:15:01.978Z,98374.12
2018-08-16T00:17:33.903Z,98385.27
2018-08-16T00:20:05.735Z,98388.92
2018-08-16T00:22:37.966Z,98379.44
2018-08-16T00:25:10.565Z,98387.09
2018-08-16T00:27:42.554Z,98385.47
2018-08-16T00:30:16.862Z,98379.81
2018-08-16T00:32:49.006Z,98383.60
2018-08-16T00:35:20.679Z,98384.13
2018-08-16T00:37:52.601Z,98390.09
2018-08-16T00:40:26.311Z,98390.45
2018-08-16T00:42:58.011Z,98393.95
2018-08-16T00:45:29.825Z,98398.94
2018-08-16T00:48:01.646Z,98397.11
2018-08-16T00:50:33.280Z,98398.78
2018-08-16T00:53:06.018Z,98394.95
2018-08-16T00:55:37.704Z,98398.45
2018-08-16T00:58:09.682Z,98399.78
2018-08-16T01:00:41.866Z,98401.44
2018-08-16T01:03:13.722Z,98400.48
2018-08-16T01:05:45.555Z,98403.27
2018-08-16T01:08:17.277Z,98401.15
2018-08-16T01:10:49.035Z,98403.48
2018-08-16T01:13:20.544Z,98409.13
2018-08-16T01:15:52.368Z,98407.47
2018-08-16T01:18:24.314Z,98413.63
2018-08-16T01:20:56.195Z,98415.45
2018-08-16T01:23:29.332Z,98423.11
2018-08-16T01:26:01.021Z,98428.77
2018-08-16T01:28:33.414Z,98431.09
2018-08-16T01:31:06.513Z,98431.75
2018-08-16T01:33:39.545Z,98427.59
2018-08-16T01:36:11.211Z,98431.42
2018-08-16T01:38:46.032Z,98432.75
2018-08-16T01:41:21.331Z,98431.92
2018-08-16T01:43:54.135Z,98431.26
2018-08-16T01:46:27.224Z,98431.76
2018-08-16T01:49:02.470Z,98429.80
2018-08-16T01:51:36.737Z,98433.13
2018-08-16T01:54:09.597Z,98441.77
2018-08-16T01:56:41.186Z,98440.44
2018-08-16T01:59:13.239Z,98445.43
2018-08-16T02:01:46.205Z,98441.11
2018-08-16T02:04:20.010Z,98444.77
2018-08-16T02:06:53.999Z,98438.45
2018-08-16T02:09:26.865Z,98437.11
2018-08-16T02:12:05.582Z,98445.09
2018-08-16T02:14:39.395Z,98441.44
2018-08-16T02:17:11.082Z,98443.93
2018-08-16T02:19:42.796Z,98443.77
2018-08-16T02:22:14.759Z,98441.44
2018-08-16T02:24:49.468Z,98441.11
2018-08-16T02:27:21.227Z,98445.09
2018-08-16T02:29:53.797Z,98448.09
2018-08-16T02:32:26.500Z,98448.59
2018-08-16T02:34:58.485Z,98454.41
2018-08-16T02:37:31.792Z,98445.73
2018-08-16T02:40:03.826Z,98450.59
2018-08-16T02:42:36.215Z,98446.09
2018-08-16T02:45:10.313Z,98451.92
2018-08-16T02:47:42.037Z,98445.73
2018-08-16T02:50:16.331Z,98444.41
2018-08-16T02:52:47.764Z,98447.92
2018-08-16T02:55:19.676Z,98450.72
2018-08-16T02:57:53.734Z,98452.05
2018-08-16T03:00:25.644Z,98451.55
2018-08-16T03:02:57.108Z,98448.06
2018-08-16T03:05:28.549Z,98460.03
2018-08-16T03:08:01.459Z,98460.86
2018-08-16T03:10:33.124Z,98462.70
2018-08-16T03:13:04.846Z,98454.74
2018-08-16T03:15:36.753Z,98455.73
2018-08-16T03:18:08.548Z,98453.08
2018-08-16T03:20:40.364Z,98448.09
2018-08-16T03:23:12.178Z,98444.59
2018-08-16T03:25:44.275Z,98451.75
2018-08-16T03:28:15.883Z,98448.76
2018-08-16T03:30:47.561Z,98452.41
2018-08-16T03:33:20.048Z,98444.39
2018-08-16T03:35:51.868Z,98444.89
2018-08-16T03:38:24.224Z,98452.05
2018-08-16T03:40:56.048Z,98440.08
2018-08-16T03:43:27.643Z,98445.73
2018-08-16T03:45:59.472Z,98447.72
2018-08-16T03:48:30.981Z,98444.73
2018-08-16T03:51:03.036Z,98437.74
2018-08-16T03:53:34.899Z,98437.41
2018-08-16T03:56:06.727Z,98442.23
2018-08-16T03:58:38.321Z,98445.39
2018-08-16T04:01:11.326Z,98443.06
2018-08-16T04:03:43.470Z,98442.69
2018-08-16T04:06:16.096Z,98440.33
2018-08-16T04:08:48.312Z,98436.20
2018-08-16T04:11:20.588Z,98431.05
2018-08-16T04:13:52.573Z,98425.72
2018-08-16T04:16:25.574Z,98425.56
2018-08-16T04:18:57.392Z,98418.08
2018-08-16T04:21:29.225Z,98424.39
2018-08-16T04:24:01.367Z,98427.72
2018-08-16T04:26:33.884Z,98423.39
2018-08-16T04:29:06.072Z,98416.41
2018-08-16T04:31:42.669Z,98413.71
2018-08-16T04:34:14.650Z,98415.70
2018-08-16T04:36:46.599Z,98417.53
2018-08-16T04:39:18.312Z,98415.70
2018-08-16T04:41:50.311Z,98418.53
2018-08-16T04:44:22.616Z,98407.37
2018-08-16T04:46:54.330Z,98396.51
2018-08-16T04:49:25.991Z,98407.51
2018-08-16T04:51:58.144Z,98398.50
2018-08-16T04:54:29.698Z,98400.11
2018-08-16T04:57:01.762Z,98398.61
2018-08-16T04:59:33.529Z,98404.73
2018-08-16T05:02:05.617Z,98403.22
2018-08-16T05:04:37.828Z,98405.39
2018-08-16T05:07:09.596Z,98402.72
2018-08-16T05:09:42.552Z,98388.91
2018-08-16T05:12:14.267Z,98395.73
2018-08-16T05:14:45.710Z,98389.08
2018-08-16T05:17:17.621Z,98390.08
2018-08-16T05:19:49.119Z,98390.87
2018-08-16T05:22:21.048Z,98397.85
2018-08-16T05:24:52.767Z,98393.86
2018-08-16T05:27:24.908Z,98395.02
2018-08-16T05:29:57.378Z,98393.36
2018-08-16T05:32:29.244Z,98401.02
2018-08-16T05:35:01.021Z,98402.30
2018-08-16T05:37:33.034Z,98399.97
2018-08-16T05:40:04.953Z,98397.81
2018-08-16T05:42:37.036Z,98399.34
2018-08-16T05:45:09.282Z,98395.98
2018-08-16T05:47:42.122Z,98399.47
2018-08-16T05:50:14.088Z,98391.64
2018-08-16T05:52:45.695Z,98395.30
2018-08-16T05:55:17.391Z,98384.98
2018-08-16T05:57:49.286Z,98379.33
2018-08-16T06:00:21.324Z,98373.96
2018-08-16T06:02:53.196Z,98380.12
2018-08-16T06:05:24.995Z,98384.44
2018-08-16T06:07:56.946Z,98382.61
2018-08-16T06:10:29.268Z,98372.63
2018-08-16T06:13:01.320Z,98378.28
2018-08-16T06:15:33.237Z,98375.13
2018-08-16T06:18:05.285Z,98374.95
2018-08-16T06:20:37.168Z,98370.78
2018-08-16T06:23:09.038Z,98372.62
2018-08-16T06:25:40.958Z,98365.79
2018-08-16T06:28:13.570Z,98361.30
2018-08-16T06:30:45.323Z,98357.97
2018-08-16T06:33:17.333Z,98359.30
2018-08-16T06:35:49.146Z,98355.27
2018-08-16T06:38:21.923Z,98356.59
2018-08-16T06:40:54.601Z,98342.28
2018-08-16T06:43:26.802Z,98346.93
2018-08-16T06:45:59.125Z,98342.61
2018-08-16T06:48:31.339Z,98340.92
2018-08-16T06:51:03.362Z,98344.92
2018-08-16T06:53:35.308Z,98341.93
2018-08-16T06:56:07.370Z,98348.92
2018-08-16T06:58:39.338Z,98343.59
2018-08-16T07:01:11.455Z,98333.94
2018-08-16T07:03:45.022Z,98331.91
2018-08-16T07:06:18.199Z,98329.09
2018-08-16T07:08:51.008Z,98332.27
2018-08-16T07:11:24.959Z,98332.92
2018-08-16T07:13:57.167Z,98332.25
2018-08-16T07:16:29.711Z,98326.09
2018-08-16T07:19:02.406Z,98329.58
2018-08-16T07:21:34.559Z,98333.41
2018-08-16T07:24:06.451Z,98328.38
2018-08-16T07:26:39.424Z,98314.55
2018-08-16T07:29:11.659Z,98308.73
2018-08-16T07:31:44.617Z,98306.72
2018-08-16T07:34:17.202Z,98311.88
2018-08-16T07:36:49.737Z,98308.20
2018-08-16T07:39:22.827Z,98303.38
2018-08-16T07:41:55.695Z,98301.55
2018-08-16T07:44:27.888Z,98297.55
2018-08-16T07:47:00.230Z,98297.55
2018-08-16T07:49:32.676Z,98294.38
2018-08-16T07:52:05.613Z,98291.22
2018-08-16T07:54:38.339Z,98292.84
2018-08-16T07:57:11.090Z,98292.02
2018-08-16T07:59:43.188Z,98285.89
2018-08-16T08:02:15.176Z,98281.89
2018-08-16T08:04:47.090Z,98279.53
2018-08-16T08:07:19.225Z,98271.36
2018-08-16T08:09:51.391Z,98272.19
2018-08-16T08:12:23.603Z,98267.84
2018-08-16T08:14:56.191Z,98272.78
2018-08-16T08:17:28.858Z,98270.45
2018-08-16T08:20:00.594Z,98261.13
2018-08-16T08:22:32.379Z,98258.96
2018-08-16T08:25:04.287Z,98261.27
2018-08-16T08:27:36.350Z,98249.28
2018-08-16T08:30:11.316Z,98241.62
2018-08-16T08:32:43.325Z,98238.13
2018-08-16T08:35:15.399Z,98231.46
2018-08-16T08:37:57.005Z,98227.80
2018-08-16T08:40:28.732Z,98229.42
2018-08-16T08:43:00.599Z,98217.42
2018-08-16T08:45:34.140Z,98217.42
2018-08-16T08:48:05.882Z,98210.41
2018-08-16T08:50:37.960Z,98207.24
2018-08-16T08:53:19.399Z,98203.25
2018-08-16T08:56:00.748Z,98196.08
2018-08-16T08:58:52.639Z,98185.75
2018-08-16T09:01:24.665Z,98174.88
2018-08-16T09:03:56.623Z,98162.71
2018-08-16T09:06:28.415Z,98157.20
2018-08-16T09:09:00.258Z,98152.02
2018-08-16T09:11:41.800Z,98155.94
2018-08-16T09:14:22.956Z,98151.55
2018-08-16T09:16:54.679Z,98150.87
2018-08-16T09:19:26.537Z,98141.72
2018-08-16T09:21:58.273Z,98139.38
2018-08-16T09:24:30.117Z,98133.36
2018-08-16T09:27:02.129Z,98130.70
2018-08-16T09:30:42.857Z,98123.32
2018-08-16T09:33:24.387Z,98122.95
2018-08-16T09:35:56.900Z,98114.32
2018-08-16T09:38:29.083Z,98113.31
2018-08-16T09:41:01.786Z,98114.28
2018-08-16T09:43:33.945Z,98110.60
2018-08-16T09:47:15.156Z,98106.10
2018-08-16T09:49:50.567Z,98106.72
2018-08-16T09:52:23.085Z,98107.55
2018-08-16T09:54:55.411Z,98109.52
2018-08-16T09:57:27.019Z,98093.16
2018-08-16T09:59:59.505Z,98081.89
2018-08-16T10:02:32.092Z,98078.40
2018-08-16T10:05:04.020Z,98077.40
2018-08-16T10:07:35.719Z,98069.55
2018-08-16T10:10:07.537Z,98071.55
2018-08-16T10:12:39.361Z,98083.97
2018-08-16T10:15:11.540Z,98086.45
2018-08-16T10:17:44.503Z,98085.12
2018-08-16T10:23:26.333Z,98070.06
2018-08-16T10:25:58.281Z,98077.88
2018-08-16T10:28:30.206Z,98082.20
2018-08-16T10:31:01.982Z,98075.67
2018-08-16T10:33:33.824Z,98062.98
2018-08-16T10:36:05.946Z,98065.94
2018-08-16T10:38:38.263Z,98067.78
2018-08-16T10:41:10.017Z,98069.94
2018-08-16T10:43:41.897Z,98072.00
2018-08-16T10:46:13.624Z,98071.67
2018-08-16T10:48:45.716Z,98070.70
2018-08-16T10:51:17.493Z,98066.39
2018-08-16T10:53:49.267Z,98063.11
2018-08-16T10:56:20.957Z,98052.45
2018-08-16T10:58:52.716Z,98050.61
2018-08-16T11:01:24.988Z,98042.61
2018-08-16T11:03:57.150Z,98051.30
2018-08-16T11:06:28.761Z,98047.81
2018-08-16T11:09:00.778Z,98052.81
2018-08-16T11:11:32.835Z,98060.81
2018-08-16T11:14:04.677Z,98061.64
2018-08-16T11:16:36.602Z,98062.47
2018-08-16T11:19:08.347Z,98061.13
2018-08-16T11:21:40.176Z,98057.14
2018-08-16T11:24:12.034Z,98048.81
2018-08-16T11:26:43.915Z,98051.80
2018-08-16T11:29:15.555Z,98041.84
2018-08-16T11:31:47.907Z,98034.48
2018-08-16T11:34:19.701Z,98026.67
2018-08-16T11:36:51.165Z,98022.30
2018-08-16T11:39:23.008Z,98018.99
2018-08-16T11:41:54.662Z,98017.66
2018-08-16T11:44:26.556Z,98019.82
2018-08-16T11:46:58.213Z,98019.17
2018-08-16T11:49:30.546Z,98017.66
2018-08-16T11:52:02.243Z,98019.50
2018-08-16T11:54:34.112Z,98018.99
2018-08-16T11:57:06.575Z,98019.50
2018-08-16T11:59:38.191Z,98020.46
2018-08-16T12:02:10.050Z,98015.96
2018-08-16T12:04:43.013Z,98016.06
2018-08-16T12:07:14.725Z,98014.91
2018-08-16T12:09:46.568Z,98017.08
2018-08-16T12:12:18.020Z,98011.42
2018-08-16T12:14:49.904Z,98013.58
2018-08-16T12:17:21.694Z,98026.41
2018-08-16T12:19:53.962Z,98025.39
2018-08-16T12:22:25.480Z,98020.75
2018-08-16T12:24:57.359Z,98028.56
2018-08-16T12:27:29.266Z,98031.73
2018-08-16T12:30:01.105Z,98033.89
2018-08-16T12:32:33.139Z,98034.72
2018-08-16T12:35:05.457Z,98041.89
2018-08-16T12:37:37.160Z,98041.39
2018-08-16T12:40:09.512Z,98051.68
2018-08-16T12:42:41.172Z,98049.84
2018-08-16T12:45:13.155Z,98049.20
2018-08-16T12:47:44.919Z,98052.00
2018-08-16T12:50:16.991Z,98052.69
2018-08-16T12:52:48.799Z,98067.78
2018-08-16T12:55:20.423Z,98066.16
2018-08-16T12:57:52.121Z,98072.10
2018-08-16T13:00:23.791Z,98067.27
2018-08-16T13:02:55.807Z,98072.10
2018-08-16T13:05:27.757Z,98072.61
2018-08-16T13:07:59.535Z,98065.94
2018-08-16T13:10:31.380Z,98071.78
2018-08-16T13:13:03.140Z,98073.94
2018-08-16T13:15:35.245Z,98076.92
2018-08-16T13:18:07.232Z,98078.98
2018-08-16T13:20:39.076Z,98082.38
2018-08-16T13:23:10.835Z,98071.03
2018-08-16T13:25:42.663Z,98076.36
2018-08-16T13:28:14.793Z,98077.00
2018-08-16T13:30:46.853Z,98074.44
2018-08-16T13:33:18.733Z,98087.59
2018-08-16T13:35:50.571Z,98099.59
2018-08-16T13:38:22.326Z,98095.91
2018-08-16T13:40:54.292Z,98100.23
2018-08-16T13:43:26.064Z,98113.88
2018-08-16T13:45:57.982Z,98112.88
2018-08-16T13:48:30.200Z,98119.22
2018-08-16T13:51:02.332Z,98120.88
2018-08-16T13:53:34.393Z,98110.58
2018-08-16T13:56:06.456Z,98114.89
2018-08-16T13:58:38.601Z,98114.58
2018-08-16T14:01:11.056Z,98125.56
2018-08-16T14:03:43.079Z,98133.05
2018-08-16T14:06:14.877Z,98140.87
2018-08-16T14:08:46.557Z,98144.47
2018-08-16T14:11:18.620Z,98145.88
2018-08-16T14:13:50.213Z,98150.63
2018-08-16T14:16:22.178Z,98153.30
2018-08-16T14:18:54.055Z,98156.97
2018-08-16T14:21:25.902Z,98157.44
2018-08-16T14:23:57.817Z,98162.77
2018-08-16T14:26:29.511Z,98158.13
2018-08-16T14:29:01.223Z,98160.42
2018-08-16T14:31:32.874Z,98151.13
2018-08-16T14:34:04.450Z,98147.41
2018-08-16T14:36:36.358Z,98151.45
2018-08-16T14:39:12.573Z,98146.58
2018-08-16T14:41:44.797Z,98144.42
2018-08-16T14:44:16.503Z,98146.77
2018-08-16T14:46:48.349Z,98145.80
2018-08-16T14:49:20.037Z,98151.96
2018-08-16T14:51:52.009Z,98152.20
2018-08-16T14:54:23.530Z,98157.25
2018-08-16T14:56:55.581Z,98158.58
2018-08-16T14:59:27.068Z,98163.09
2018-08-16T15:01:58.881Z,98164.09
2018-08-16T15:04:31.134Z,98166.37
2018-08-16T15:07:03.121Z,98167.91
2018-08-16T15:09:34.903Z,98164.42
2018-08-16T15:12:07.128Z,98164.42
2018-08-16T15:14:38.748Z,98165.98
2018-08-16T15:17:10.766Z,98167.91
2018-08-16T15:19:42.701Z,98173.03
2018-08-16T15:22:14.285Z,98173.25
2018-08-16T15:24:46.087Z,98179.78
2018-08-16T15:27:17.648Z,98192.60
2018-08-16T15:29:49.290Z,98203.41
2018-08-16T15:32:21.409Z,98203.09
2018-08-16T15:34:53.286Z,98203.41
2018-08-16T15:37:25.514Z,98206.08
2018-08-16T15:39:57.174Z,98208.74
2018-08-16T15:42:29.267Z,98200.42
2018-08-16T15:45:00.732Z,98200.09
2018-08-16T15:47:32.863Z,98202.77
2018-08-16T15:50:05.361Z,98196.60
2018-08-16T15:52:37.374Z,98195.91
2018-08-16T15:55:09.432Z,98198.37
2018-08-16T15:57:41.378Z,98207.70
2018-08-16T16:00:13.365Z,98211.52
2018-08-16T16:02:45.197Z,98212.85
2018-08-16T16:05:17.291Z,98203.02
2018-08-16T16:07:49.148Z,98203.84
2018-08-16T16:10:20.877Z,98200.53
2018-08-16T16:12:52.612Z,98202.69
2018-08-16T16:15:24.254Z,98205.36
2018-08-16T16:17:56.472Z,98210.37
2018-08-16T16:20:28.786Z,98196.74
2018-08-16T16:23:00.631Z,98202.37
2018-08-16T16:25:32.744Z,98197.36
2018-08-16T16:28:04.805Z,98192.02
2018-08-16T16:30:36.440Z,98194.33
2018-08-16T16:33:08.536Z,98193.36
2018-08-16T16:35:40.353Z,98198.33
2018-08-16T16:38:12.304Z,98203.16
2018-08-16T16:40:43.900Z,98207.98
2018-08-16T16:43:15.631Z,98207.98
2018-08-16T16:45:47.351Z,98208.30
2018-08-16T16:48:19.608Z,98203.48
2018-08-16T16:50:51.524Z,98205.10
2018-08-16T16:53:23.797Z,98201.31
2018-08-16T16:55:55.774Z,98195.98
2018-08-16T16:58:27.936Z,98201.31
2018-08-16T17:00:59.803Z,98199.66
2018-08-16T17:03:31.757Z,98206.33
2018-08-16T17:06:03.759Z,98203.98
2018-08-16T17:08:35.930Z,98199.66
2018-08-16T17:11:07.757Z,98196.42
2018-08-16T17:13:39.647Z,98198.69
2018-08-16T17:16:11.768Z,98193.03
2018-08-16T17:18:43.671Z,98198.51
2018-08-16T17:21:16.460Z,98199.66
2018-08-16T17:23:48.287Z,98192.67
2018-08-16T17:26:20.493Z,98200.99
2018-08-16T17:28:52.319Z,98199.16
2018-08-16T17:31:23.998Z,98204.30
2018-08-16T17:33:56.053Z,98203.16
2018-08-16T17:36:27.747Z,98206.97
2018-08-16T17:38:59.729Z,98197.80
2018-08-16T17:41:32.119Z,98192.86
2018-08-16T17:44:04.267Z,98190.44
2018-08-16T17:46:35.962Z,98186.44
2018-08-16T17:49:08.002Z,98186.08
2018-08-16T17:51:40.009Z,98188.34
2018-08-16T18:01:12.164Z,98177.68
2018-08-16T18:03:44.367Z,98172.67
2018-08-16T18:06:16.326Z,98175.98
2018-08-16T18:08:48.464Z,98184.99
2018-08-16T18:11:20.432Z,98177.86
2018-08-16T18:13:52.332Z,98179.02
2018-08-16T18:16:24.154Z,98176.48
2018-08-16T18:18:55.864Z,98188.30
2018-08-16T18:21:27.736Z,98191.98
2018-08-16T18:23:59.610Z,98188.48
2018-08-16T18:26:31.436Z,98179.95
2018-08-16T18:29:03.377Z,98174.95
2018-08-16T18:31:35.182Z,98173.11
2018-08-16T18:34:06.838Z,98168.03
2018-08-16T18:36:38.537Z,98172.36
2018-08-16T18:39:11.482Z,98172.36
2018-08-16T18:41:43.251Z,98176.35
2018-08-16T18:44:15.085Z,98177.47
2018-08-16T18:46:46.935Z,98172.72
2018-08-16T18:49:18.769Z,98173.55
2018-08-16T18:51:50.538Z,98156.97
2018-08-16T18:54:22.301Z,98157.80
2018-08-16T18:56:54.147Z,98160.28
2018-08-16T18:59:25.874Z,98148.42
2018-08-16T19:01:57.875Z,98156.42
2018-08-16T19:04:29.867Z,98156.61
2018-08-16T19:07:01.671Z,98153.44
2018-08-16T19:09:33.495Z,98150.45
2018-08-16T19:12:05.143Z,98152.42
2018-08-16T19:14:36.871Z,98149.03
2018-08-16T19:17:09.634Z,98149.86
2018-08-16T19:19:41.347Z,98154.51
2018-08-16T19:22:13.389Z,98152.67
2018-08-16T19:24:45.043Z,98157.68
2018-08-16T19:27:16.917Z,98158.19
2018-08-16T19:29:48.422Z,98154.69
2018-08-16T19:32:20.485Z,98150.69
2018-08-16T19:34:52.239Z,98148.02
2018-08-16T19:37:24.407Z,98149.68
2018-08-16T19:39:57.041Z,98148.85
2018-08-16T19:42:28.956Z,98146.70
2018-08-16T19:45:00.710Z,98149.41
2018-08-16T19:47:32.541Z,98142.81
2018-08-16T19:50:04.670Z,98139.78
2018-08-16T19:52:36.368Z,98136.10
2018-08-16T19:55:08.674Z,98142.08
2018-08-16T19:57:40.512Z,98145.86
2018-08-16T20:00:12.514Z,98153.36
2018-08-16T20:02:44.370Z,98151.70
2018-08-16T20:05:16.213Z,98149.17
2018-08-16T20:07:48.103Z,98148.02
2018-08-16T20:10:19.711Z,98150.69
2018-08-16T20:12:51.527Z,98156.02
2018-08-16T20:15:24.186Z,98158.51
2018-08-16T20:17:55.932Z,98153.17
2018-08-16T20:20:27.369Z,98155.52
2018-08-16T20:22:59.480Z,98153.36
2018-08-16T20:25:30.970Z,98151.52
2018-08-16T20:28:02.769Z,98144.53
2018-08-16T20:30:34.296Z,98133.86
2018-08-16T20:33:06.117Z,98132.03
2018-08-16T20:35:38.233Z,98136.02
2018-08-16T20:38:10.032Z,98127.70
2018-08-16T20:40:43.048Z,98130.19
2018-08-16T20:43:14.969Z,98133.68
2018-08-16T20:45:46.604Z,98135.20
2018-08-16T20:48:18.546Z,98139.41
2018-08-16T20:50:50.612Z,98131.70
2018-08-16T20:53:22.443Z,98135.20
2018-08-16T20:55:54.258Z,98131.02
2018-08-16T20:58:26.098Z,98132.85
2018-08-16T21:00:58.050Z,98125.68
2018-08-16T21:03:30.330Z,98125.36
2018-08-16T21:06:02.049Z,98125.68
2018-08-16T21:08:33.742Z,98120.02
2018-08-16T21:11:56.256Z,98124.34
2018-08-16T21:14:28.182Z,98112.16
2018-08-16T21:17:00.237Z,98119.66
2018-08-16T21:19:32.105Z,98105.49
2018-08-16T21:22:03.984Z,98106.83
2018-08-16T21:24:35.742Z,98104.67
2018-08-16T21:27:07.780Z,98102.00
2018-08-16T21:29:39.951Z,98107.66
2018-08-16T21:32:11.359Z,98104.80
2018-08-16T21:34:43.258Z,98092.67
2018-08-16T21:37:15.316Z,98086.00
2018-08-16T21:39:47.122Z,98092.34
2018-08-16T21:42:19.600Z,98095.02
2018-08-16T21:44:51.556Z,98094.51
2018-08-16T21:47:23.776Z,98092.02
2018-08-16T21:49:55.546Z,98096.03
2018-08-16T21:52:27.534Z,98083.84
2018-08-16T21:54:59.317Z,98087.02
2018-08-16T21:57:31.250Z,98091.52
2018-08-16T22:00:03.599Z,98086.38
2018-08-16T22:02:35.656Z,98084.75
2018-08-16T22:05:07.385Z,98087.02
2018-08-16T22:08:12.857Z,98087.20
2018-08-16T22:10:45.209Z,98085.86
2018-08-16T22:13:16.949Z,98082.19
2018-08-16T22:15:48.903Z,98091.02
2018-08-16T22:18:20.825Z,98096.53
2018-08-16T22:20:52.832Z,98094.69
2018-08-16T22:23:24.913Z,98091.02
2018-08-16T22:25:56.724Z,98091.41
2018-08-16T22:28:28.508Z,98099.20
2018-08-16T22:31:00.925Z,98097.87
2018-08-16T22:33:32.758Z,98094.38
2018-08-16T22:36:04.820Z,98095.70
2018-08-16T22:38:36.609Z,98096.75
2018-08-16T22:41:08.507Z,98093.03
2018-08-16T22:43:40.488Z,98091.41
2018-08-16T22:46:12.178Z,98090.59
2018-08-16T22:48:43.856Z,98094.08
2018-08-16T22:51:15.959Z,98094.08
2018-08-16T22:53:47.557Z,98086.08
2018-08-16T22:56:19.433Z,98084.43
2018-08-16T22:58:50.868Z,98083.42
2018-08-16T23:01:22.961Z,98079.42
2018-08-16T23:03:55.046Z,98085.36
2018-08-16T23:06:26.805Z,98077.77
2018-08-16T23:08:58.546Z,98081.77
2018-08-16T23:11:30.145Z,98083.09
2018-08-16T23:14:01.833Z,98082.45
2018-08-16T23:16:33.439Z,98088.48
2018-08-16T23:19:05.160Z,98080.55
2018-08-16T23:21:36.998Z,98083.34
2018-08-16T23:24:08.927Z,98085.00
2018-08-16T23:26:40.705Z,98083.85
2018-08-16T23:29:12.683Z,98094.02
2018-08-16T23:31:44.415Z,98097.64
2018-08-16T23:34:16.212Z,98097.42
2018-08-16T23:36:48.359Z,98098.90
2018-08-16T23:39:19.868Z,98092.55
2018-08-16T23:41:51.645Z,98091.73
2018-08-16T23:44:23.924Z,98090.90
2018-08-16T23:46:55.862Z,98090.90
2018-08-16T23:49:27.988Z,98087.22
2018-08-16T23:52:00.274Z,98085.89
2018-08-16T23:54:31.960Z,98082.58
2018-08-16T23:57:03.646Z,98085.56
2018-08-16T23:59:35.364Z,98092.23
